SBOSBO PMI / LEPA
Speedbird OnlineSpeedbird Online PMI / LEPA

Palma De Mallorca Airport
22:38 23.2°C

Location Palma de Mallorca, Spain
Latitude: 39.551700592
Longitude: 2.73881006241
Web Airport Website | Wikipedia
Altitude 8 Meter / 27 Feet
Distance 1,345 KM / 836 Miles
from London.
Time Zone UTC +2 hours (Europe/Madrid)
Codes IATA: PMI
ICAO: LEPA
Currency £1 equals EUR 1.12
Runways
RunwayLength (m)Surface
06L3270Asphalt
06R3000Asphalt
24L3000Asphalt
24R3270Asphalt
Radio
TypeDescriptionFrequency
APPAPP118.95
ATISATIS119.25
CLDCLNC DEL121.6
GNDGND121.7
OPSOPS130.25
TWRTWR118.3
Live ATC
METAR LEPA 242000Z 07008KT 9999 FEW025 FEW030TCU 23/18 Q1011 NOSIG
TAF TAF AMD LEPA 241827Z 2418/2518 06012KT 9999 SCT030 TX25/2512Z TN18/2505Z TEMPO 2418/2420 FEW030CB PROB30 TEMPO 2420/2423 3000 TSRA SCT030CB PROB40 TEMPO 2423/2503 06020G30KT 3000 TSRA SCT030CB TEMPO 2503/2518 4000 SHRA SCT030TCU PROB30 TEMPO 2512/2518 3000 TSRA SCT030CB
Weather As Of 24 Sep 2022 22:39
Description Few clouds
Wind 15 km/h from East (70°)
Cloud Cover 20%
Precipitation Rain: none, Snow: none
Sunrise 07:38
Sunset 19:44
Lounges Sala Valldemosa , Departures
Sala Formentor , Terminal D
Rotations During the last 90 days there were
227 flights from LHR
135 flights from LCY
74 flights from LGW
35 flights from SOU
14 flights from EDI
229 flights to LHR
134 flights to LCY
73 flights to LGW
34 flights to SOU
12 flights to EDI


© 2017-2022 Speedbird Online